Suisun City, California
Current Conditions -  °F | °C
As of 1:58 PM on Wednesday 26 Nov 2014 (Local Time) from KSUU Reporting Station
Clear Clear  
Wind Chill: 65°   Ceiling: Unl
Heat Index: 65°   Visibility: 10mi
Dew Point: 49°   Wind: 8mph
Humidity: 56%   Direction: 70°ENE
Pressure: 30.23"   Gusts: NA
Location:  38.24°N, 122.03°W
Report Text: KSUU 262158Z AUTO 07007KT 10SM CLR 19/10 A3023 RMK AO2 SLP244 T01860096 $
Loading
Personal Weather Stations






























Interactive Weather Map New forecast layout! Learn more

10-Day Weather Forecast

Advertisements
Track Severe Weather on mobile